Decoded Metar for LIRU (ROME in ITALY) (IATA:N/A) | Meteo·Mobile Aviation Weather
aviador You're here:

LIRU Decoded Metar

ROME in ITALY
Report Time2019-01-20 09:50:00
UTC Time2019-01-20 10:56:22
Flight Rules mvfr MVFR
WindVRB at 03 kt
Visibility6000 m
Phenomena:Light Rain
Clouds:Scattered 035 Hf
CeilingNone
Temp06°C (ISA -9)
Dew Point06°C (100% RH)
AAT4.0°C
QNH1014 hPa
Density Alt-896 ft
Elevation79 ft
Report Wrong Elevation
Raw Report
METAR LIRU 200950Z VRB03KT 340V050 6000 -RA SCT035 06/06 Q1014=

Extra information for LIRU:More info

Metar Taf Metar & Taf Last 4 Metars F.Rules Stats Wind Profile Meteogram Temp Stats Airport Information Weather charts Add Link Nearby VenuesMetar ALERT Operation Metar Decoded Social comments